Edmundston, Canada
Current Conditions -  °F | °C
As of 11:53 PM on Saturday 22 Nov 2014 (Local Time) from KFVE Reporting Station
Overcast Overcast  
Wind Chill: 17°   Ceiling: 4200
Heat Index: 28°   Visibility: 10mi
Dew Point: 23°   Wind: 15mph
Humidity: 81%   Direction: 250°WSW
Pressure: 29.72"   Gusts: NA
Location:  47.37°N, 68.33°W
Report Text: KFVE 230353Z AUTO 25013KT 10SM OVC042 M02/M05 A2972 RMK AO2 SLP078 T10221050
Loading
Personal Weather Stations






























Interactive Weather Map New forecast layout! Learn more

10-Day Weather Forecast

Advertisements
Track Severe Weather on mobile